sensor_id;sensor_type;location;lat;lon;timestamp;P1;durP1;ratioP1;P2;durP2;ratioP2
23494;SDS011;26107;50.832;2.950;2023-04-03T00:14:28;13.63;;;8.48;;
23494;SDS011;26107;50.832;2.950;2023-04-03T00:29:28;9.52;;;7.40;;
23494;SDS011;26107;50.832;2.950;2023-04-03T00:59:37;13.15;;;8.48;;
23494;SDS011;26107;50.832;2.950;2023-04-03T01:14:42;12.77;;;7.07;;
23494;SDS011;26107;50.832;2.950;2023-04-03T01:29:43;14.05;;;8.77;;
23494;SDS011;26107;50.832;2.950;2023-04-03T01:44:44;14.25;;;8.35;;
23494;SDS011;26107;50.832;2.950;2023-04-03T01:59:45;8.15;;;6.28;;
23494;SDS011;26107;50.832;2.950;2023-04-03T02:14:46;9.88;;;6.53;;
23494;SDS011;26107;50.832;2.950;2023-04-03T02:29:47;8.18;;;4.70;;
23494;SDS011;26107;50.832;2.950;2023-04-03T02:44:47;9.00;;;5.00;;
23494;SDS011;26107;50.832;2.950;2023-04-03T03:14:48;12.55;;;8.07;;
23494;SDS011;26107;50.832;2.950;2023-04-03T03:29:49;7.97;;;5.18;;
23494;SDS011;26107;50.832;2.950;2023-04-03T03:59:51;8.55;;;5.00;;
23494;SDS011;26107;50.832;2.950;2023-04-03T04:14:52;7.57;;;4.53;;
23494;SDS011;26107;50.832;2.950;2023-04-03T04:59:54;5.68;;;4.53;;
23494;SDS011;26107;50.832;2.950;2023-04-03T05:29:55;6.28;;;4.68;;
23494;SDS011;26107;50.832;2.950;2023-04-03T05:44:56;8.15;;;4.38;;
23494;SDS011;26107;50.832;2.950;2023-04-03T06:14:57;10.70;;;6.28;;
23494;SDS011;26107;50.832;2.950;2023-04-03T06:29:58;7.78;;;4.20;;
23494;SDS011;26107;50.832;2.950;2023-04-03T07:00:00;9.60;;;4.63;;
23494;SDS011;26107;50.832;2.950;2023-04-03T07:15:01;8.57;;;4.30;;
23494;SDS011;26107;50.832;2.950;2023-04-03T07:30:02;7.70;;;4.88;;
23494;SDS011;26107;50.832;2.950;2023-04-03T07:45:03;4.03;;;3.30;;
23494;SDS011;26107;50.832;2.950;2023-04-03T08:00:04;5.95;;;3.83;;
23494;SDS011;26107;50.832;2.950;2023-04-03T08:15:06;4.07;;;3.67;;
23494;SDS011;26107;50.832;2.950;2023-04-03T08:30:08;6.20;;;3.63;;
23494;SDS011;26107;50.832;2.950;2023-04-03T08:45:25;5.50;;;2.50;;
23494;SDS011;26107;50.832;2.950;2023-04-03T09:31:40;5.10;;;4.40;;
23494;SDS011;26107;50.832;2.950;2023-04-03T09:46:43;4.85;;;3.97;;
23494;SDS011;26107;50.832;2.950;2023-04-03T10:02:17;5.63;;;4.10;;
23494;SDS011;26107;50.832;2.950;2023-04-03T11:03:47;4.80;;;2.60;;
23494;SDS011;26107;50.832;2.950;2023-04-03T11:19:16;3.75;;;2.28;;
23494;SDS011;26107;50.832;2.950;2023-04-03T11:49:53;2.88;;;2.10;;
23494;SDS011;26107;50.832;2.950;2023-04-03T12:51:13;3.65;;;1.30;;
23494;SDS011;26107;50.832;2.950;2023-04-03T13:06:18;1.95;;;1.38;;
23494;SDS011;26107;50.832;2.950;2023-04-03T13:21:28;1.85;;;1.10;;
23494;SDS011;26107;50.832;2.950;2023-04-03T13:36:37;1.92;;;1.40;;
23494;SDS011;26107;50.832;2.950;2023-04-03T14:07:24;2.75;;;1.02;;
23494;SDS011;26107;50.832;2.950;2023-04-03T14:22:26;2.08;;;1.05;;
23494;SDS011;26107;50.832;2.950;2023-04-03T14:37:31;2.00;;;1.23;;
23494;SDS011;26107;50.832;2.950;2023-04-03T14:52:34;3.28;;;1.50;;
23494;SDS011;26107;50.832;2.950;2023-04-03T15:07:36;4.88;;;2.08;;
23494;SDS011;26107;50.832;2.950;2023-04-03T15:22:39;3.30;;;1.75;;
23494;SDS011;26107;50.832;2.950;2023-04-03T15:37:40;1.65;;;1.00;;
23494;SDS011;26107;50.832;2.950;2023-04-03T16:07:41;3.45;;;1.10;;
23494;SDS011;26107;50.832;2.950;2023-04-03T16:22:42;2.08;;;1.10;;
23494;SDS011;26107;50.832;2.950;2023-04-03T16:37:43;2.53;;;1.00;;
23494;SDS011;26107;50.832;2.950;2023-04-03T16:52:45;1.27;;;1.02;;
23494;SDS011;26107;50.832;2.950;2023-04-03T17:07:46;2.60;;;0.98;;
23494;SDS011;26107;50.832;2.950;2023-04-03T17:22:47;4.30;;;0.98;;
23494;SDS011;26107;50.832;2.950;2023-04-03T17:37:48;0.80;;;0.80;;
23494;SDS011;26107;50.832;2.950;2023-04-03T17:52:49;3.95;;;1.48;;
23494;SDS011;26107;50.832;2.950;2023-04-03T18:07:50;2.03;;;1.05;;
23494;SDS011;26107;50.832;2.950;2023-04-03T18:22:52;4.53;;;1.88;;
23494;SDS011;26107;50.832;2.950;2023-04-03T18:37:52;2.35;;;1.30;;
23494;SDS011;26107;50.832;2.950;2023-04-03T18:52:53;3.65;;;1.45;;
23494;SDS011;26107;50.832;2.950;2023-04-03T19:07:54;5.40;;;1.63;;
23494;SDS011;26107;50.832;2.950;2023-04-03T19:22:54;5.20;;;1.70;;
23494;SDS011;26107;50.832;2.950;2023-04-03T19:37:55;4.35;;;1.77;;
23494;SDS011;26107;50.832;2.950;2023-04-03T19:52:56;7.75;;;2.15;;
23494;SDS011;26107;50.832;2.950;2023-04-03T20:07:58;5.78;;;2.85;;
23494;SDS011;26107;50.832;2.950;2023-04-03T20:22:58;7.13;;;2.97;;
23494;SDS011;26107;50.832;2.950;2023-04-03T20:38:00;5.25;;;2.58;;
23494;SDS011;26107;50.832;2.950;2023-04-03T20:53:00;6.32;;;2.80;;
23494;SDS011;26107;50.832;2.950;2023-04-03T21:23:40;6.47;;;2.80;;
23494;SDS011;26107;50.832;2.950;2023-04-03T21:38:40;4.18;;;2.53;;
23494;SDS011;26107;50.832;2.950;2023-04-03T21:53:41;4.85;;;2.40;;
23494;SDS011;26107;50.832;2.950;2023-04-03T22:08:43;4.32;;;2.40;;
23494;SDS011;26107;50.832;2.950;2023-04-03T22:23:44;3.42;;;2.28;;
23494;SDS011;26107;50.832;2.950;2023-04-03T22:38:45;5.00;;;2.00;;
23494;SDS011;26107;50.832;2.950;2023-04-03T22:53:46;2.73;;;2.00;;
23494;SDS011;26107;50.832;2.950;2023-04-03T23:08:46;4.32;;;2.85;;
23494;SDS011;26107;50.832;2.950;2023-04-03T23:23:47;5.82;;;3.85;;
23494;SDS011;26107;50.832;2.950;2023-04-03T23:38:48;4.93;;;2.08;;
23494;SDS011;26107;50.832;2.950;2023-04-03T23:53:48;5.90;;;2.35;;
